Taunton, United Kingdom
Current Conditions -  °F | °C
As of 10:50 AM on Sunday 21 Dec 2014 (Local Time) from EGDY Reporting Station
Broken Clouds Broken Clouds  
Wind Chill: 44°   Ceiling: 2300
Heat Index: 48°   Visibility: 6mi
Dew Point: 43°   Wind: 10mph
Humidity: 82%   Direction: 230°SW
Pressure: 30.39"   Gusts: NA
Location:  51.01°N, 3.1°W
Report Text: EGDY 211050Z AUTO 23009KT 9999 BKN023/// 09/06 Q1029
Loading
Personal Weather Stations






























Interactive Weather Map New forecast layout! Learn more

10-Day Weather Forecast

Advertisements
Track Severe Weather on mobile